Fort Wainwright, Alaska
Current Conditions -  °F | °C
As of 10:55 AM on Thursday 30 Oct 2014 (Local Time) from PAFB Reporting Station
Light Snow Light Snow  
Wind Chill: 10°   Ceiling: 2200
Heat Index: 10°   Visibility: 13mi
Dew Point:   Wind: 3mph
Humidity: 85%   Direction: 170°S
Pressure: 29.77"   Gusts: NA
Location:  64.84°N, 147.61°W
Report Text: PAFB 301855Z 17003KT 13SM -SN FEW010 BKN022 BKN200 M12/M14 A2977 RMK SLP091
Loading
Personal Weather Stations






























Interactive Weather Map
Tropical Storm Tracking
New forecast layout! Learn more

10-Day Weather Forecast

Advertisements
Track Severe Weather on mobile